Niles, Illinois
Current Conditions -  °F | °C
As of 9:51 AM on Wednesday 26 Nov 2014 (Local Time) from KORD Reporting Station
Haze Haze  
Wind Chill: 18°   Ceiling: 1600
Heat Index: 24°   Visibility: 5mi
Dew Point: 20°   Wind: 5mph
Humidity: 84%   Direction: 190°S
Pressure: 30.15"   Gusts: NA
Location:  42.02°N, 87.8°W
Report Text: KORD 261551Z 19004KT 5SM BR OVC016 M04/M07 A3015 RMK AO2 SLP219 T10441067
Loading
Personal Weather Stations






























Interactive Weather Map New forecast layout! Learn more

10-Day Weather Forecast

Advertisements
Track Severe Weather on mobile